Goose Valley (237) Station Data

Red Flag Warning: No
Fire Weather Zone: 250
SDGE Region: Ramona
Lat/Lon: 33.073/-116.845

Observations

Time Wind Speed/Gust Temp(F) RH Fuel Moist Fuel Temp(F) Dewpt(F) Tmax(F) Tmin(F) Accum Precip 10-min Precip SL Press(mb)
4/26 2:50am 332 1 G 2 48° 87% - - 44° 52.6° 47.6° - - -
4/26 2:40am 33 2 G 4 48° 86% - - 44° 52.6° 47.6° - - -
4/26 2:30am 17 1 G 2 48° 85% - - 44° 52.6° 47.9° - - -
4/26 2:20am 196 1 G 2 49° 85% - - 44° 52.6° 48.1° - - -
4/26 2:10am 326 1 G 2 49° 85% - - 45° 52.6° 48.8° - - -
4/26 2:00am 346 2 G 3 49° 85% - - 45° 52.6° 48.9° - - -
4/26 1:50am 6 1 G 3 49° 84% - - 44° 52.6° 48.9° - - -
4/26 1:40am 141 1 G 2 49° 83% - - 45° 52.6° 49.2° - - -
4/26 1:30am 343 1 G 3 50° 83% - - 45° 52.6° 49.8° - - -
4/26 1:20am 351 2 G 3 50° 82% - - 45° 52.6° 49.9° - - -
4/26 1:10am 353 2 G 3 50° 81% - - 45° 52.6° 50.2° - - -
4/26 1:00am 354 1 G 2 51° 80% - - 45° 52.6° 50.3° - - -
4/26 12:50am 109 2 G 4 51° 80% - - 45° 52.6° 50.4° - - -
4/26 12:40am 207 2 G 4 51° 81% - - 46° 52.6° 50.7° - - -
4/26 12:30am 286 1 G 2 51° 78% - - 45° 52.6° 50.7° - - -
4/26 12:20am 26 1 G 2 52° 77% - - 45° 52.6° 51.4° - - -
4/26 12:10am 4 0 G 1 52° 76% - - 45° 52.6° 51.9° - - -
4/26 12:00am 29 1 G 2 53° 76% - - 45° 67.9° 52.3° - - -
4/25 11:50pm 1 0 G 1 53° 75% - - 45° 67.9° 52.7° - - -
4/25 11:40pm 204 1 G 2 53° 74% - - 45° 67.9° 53° - - -
4/25 11:30pm 145 1 G 2 54° 72% - - 46° 67.9° 53.2° - - -
4/25 11:20pm 67 1 G 3 55° 72% - - 46° 67.9° 53.2° - - -
4/25 11:10pm 350 2 G 5 55° 72% - - 46° 67.9° 53.2° - - -
4/25 11:00pm 2 3 G 6 54° 74% - - 46° 67.9° 53.2° - - -
4/25 10:50pm 352 2 G 3 54° 73% - - 45° 67.9° 53.2° - - -
4/25 10:40pm 22 1 G 2 54° 72% - - 45° 67.9° 53.3° - - -
4/25 10:30pm 345 0 G 2 54° 71% - - 45° 67.9° 53.5° - - -
4/25 10:20pm 291 0 G 1 54° 71% - - 45° 67.9° 53.6° - - -
4/25 10:10pm 3 3 G 4 54° 70% - - 45° 67.9° 53.6° - - -
4/25 10:00pm 43 2 G 4 54° 70% - - 45° 67.9° 53.6° - - -
4/25 9:50pm 10 2 G 4 54° 71% - - 45° 67.9° 53.6° - - -
4/25 9:40pm 351 1 G 2 54° 71% - - 45° 67.9° 53.6° - - -
4/25 9:30pm 4 1 G 3 54° 70% - - 45° 67.9° 53.6° - - -
4/25 9:20pm 25 1 G 3 55° 70% - - 45° 67.9° 53.6° - - -
4/25 9:10pm 13 2 G 3 55° 69% - - 45° 67.9° 53.6° - - -
4/25 9:00pm 25 2 G 3 55° 68% - - 45° 67.9° 53.6° - - -
4/25 8:50pm 336 1 G 2 56° 66% - - 45° 67.9° 53.6° - - -
4/25 8:40pm 67 0 G 2 57° 65% - - 45° 67.9° 53.6° - - -
4/25 8:30pm 166 0 G 1 57° 64% - - 45° 67.9° 53.6° - - -
4/25 8:20pm 182 1 G 2 58° 62% - - 45° 67.9° 53.6° - - -
4/25 8:10pm 248 1 G 3 58° 61% - - 45° 67.9° 53.6° - - -
4/25 8:00pm 271 1 G 4 58° 62% - - 45° 67.9° 53.6° - - -
4/25 7:50pm 255 1 G 2 58° 62% - - 45° 67.9° 53.6° - - -
4/25 7:40pm 238 1 G 1 59° 61% - - 45° 67.9° 53.6° - - -
4/25 7:30pm 223 1 G 3 59° 60% - - 45° 67.9° 53.6° - - -
4/25 7:20pm 199 1 G 5 60° 59% - - 46° 67.9° 53.6° - - -
4/25 7:10pm 234 1 G 3 60° 59% - - 46° 67.9° 53.6° - - -
4/25 7:00pm 287 1 G 5 60° 58% - - 46° 67.9° 53.6° - - -
4/25 6:50pm 269 3 G 10 61° 59% - - 46° 67.9° 53.6° - - -
4/25 6:40pm 275 2 G 7 61° 59% - - 47° 67.9° 53.6° - - -
4/25 6:30pm 269 2 G 10 62° 59% - - 47° 67.9° 53.6° - - -
4/25 6:20pm 253 3 G 8 62° 59% - - 47° 67.9° 53.6° - - -
4/25 6:10pm 259 3 G 11 63° 57% - - 47° 67.9° 53.6° - - -
4/25 6:00pm 262 3 G 7 63° 57% - - 47° 67.9° 53.6° - - -
4/25 5:50pm 265 4 G 10 63° 56% - - 47° 67.9° 53.6° - - -
4/25 5:40pm 257 4 G 10 64° 56% - - 48° 67.9° 53.6° - - -
4/25 5:30pm 263 3 G 7 64° 56% - - 48° 67.9° 53.6° - - -
4/25 5:20pm 263 4 G 11 65° 55% - - 48° 67.9° 53.6° - - -
4/25 5:10pm 259 4 G 8 66° 53% - - 48° 67.9° 53.6° - - -
4/25 5:00pm 315 3 G 8 66° 53% - - 48° 67.9° 53.6° - - -
4/25 4:50pm 266 4 G 9 66° 54% - - 49° 67.9° 53.6° - - -
4/25 4:40pm 256 4 G 13 65° 55% - - 49° 67.9° 53.6° - - -
4/25 4:30pm 264 4 G 11 66° 53% - - 48° 67.9° 53.6° - - -
4/25 4:20pm 276 3 G 9 67° 51% - - 48° 67.9° 53.6° - - -
4/25 4:10pm 268 3 G 7 66° 52% - - 48° 67.9° 53.6° - - -
4/25 4:00pm 293 3 G 8 66° 52% - - 48° 67.9° 53.6° - - -
4/25 3:50pm 251 5 G 10 65° 53% - - 48° 67.9° 53.6° - - -
4/25 3:40pm 287 3 G 9 66° 53% - - 48° 67.9° 53.6° - - -
4/25 3:30pm 298 4 G 10 65° 54% - - 48° 67.9° 53.6° - - -
4/25 3:20pm 274 4 G 9 66° 54% - - 49° 67.9° 53.6° - - -
4/25 3:10pm 248 4 G 10 65° 56% - - 49° 67.9° 53.6° - - -
4/25 3:00pm 253 4 G 10 64° 57% - - 49° 67.9° 53.6° - - -
4/25 2:50pm 238 5 G 11 64° 57% - - 49° 67.9° 53.6° - - -
4/25 2:40pm 247 6 G 12 64° 56% - - 49° 67.9° 53.6° - - -
4/25 2:30pm 272 5 G 11 65° 52% - - 47° 67.9° 53.6° - - -
4/25 2:20pm 265 4 G 10 67° 50% - - 47° 67.9° 53.6° - - -
4/25 2:10pm 286 3 G 9 67° 49% - - 47° 67.9° 53.6° - - -
4/25 2:00pm 253 3 G 7 66° 51% - - 48° 67° 53.6° - - -
4/25 1:50pm 255 5 G 12 66° 50% - - 47° 67° 53.6° - - -
4/25 1:40pm 275 3 G 8 66° 50% - - 47° 67° 53.6° - - -
4/25 1:30pm 264 6 G 15 66° 54% - - 49° 66.7° 53.6° - - -
4/25 1:20pm 251 6 G 10 66° 52% - - 48° 66.7° 53.6° - - -
4/25 1:10pm 262 4 G 10 66° 51% - - 48° 66.7° 53.6° - - -
4/25 1:00pm 250 5 G 11 66° 50% - - 47° 66.7° 53.6° - - -
4/25 12:50pm 274 3 G 7 66° 47% - - 45° 66.7° 53.6° - - -
4/25 12:40pm 284 3 G 8 66° 48% - - 46° 66.7° 53.6° - - -
4/25 12:30pm 259 3 G 9 66° 50% - - 47° 66.7° 53.6° - - -
4/25 12:20pm 244 3 G 8 66° 48% - - 46° 66.7° 53.6° - - -
4/25 12:10pm 244 5 G 12 65° 50% - - 46° 65.5° 53.6° - - -
4/25 12:00pm 272 3 G 9 64° 50% - - 45° 65.5° 53.6° - - -
4/25 11:50am 270 3 G 10 65° 50% - - 46° 65.5° 53.6° - - -
4/25 11:40am 279 3 G 8 65° 49% - - 45° 65.5° 53.6° - - -
4/25 11:30am 284 3 G 9 64° 48% - - 44° 64.8° 53.6° - - -
4/25 11:20am 279 4 G 9 64° 49% - - 44° 64.8° 53.6° - - -
4/25 11:10am 302 2 G 8 64° 51% - - 45° 64.5° 53.6° - - -
4/25 11:00am 244 2 G 5 62° 57% - - 46° 63.5° 53.6° - - -
4/25 10:50am 194 4 G 7 62° 59% - - 47° 62.2° 53.6° - - -
4/25 10:40am 192 3 G 6 61° 61% - - 47° 62.2° 53.6° - - -
4/25 10:30am 210 4 G 10 62° 59% - - 47° 62.2° 53.6° - - -
4/25 10:20am 264 3 G 7 61° 61% - - 47° 61.7° 53.6° - - -
4/25 10:10am 158 2 G 5 60° 62% - - 47° 60.9° 53.6° - - -
4/25 10:00am 237 3 G 8 59° 65% - - 48° 60.5° 53.6° - - -
4/25 9:50am 232 5 G 9 59° 67% - - 48° 60.5° 53.6° - - -
4/25 9:40am 214 4 G 9 60° 64% - - 48° 60.5° 53.6° - - -
4/25 9:30am 175 4 G 8 59° 66% - - 48° 60.5° 53.6° - - -
4/25 9:20am 208 4 G 7 59° 69% - - 49° 59.3° 53.6° - - -
4/25 9:10am 225 4 G 9 58° 71% - - 49° 58.7° 53.6° - - -
4/25 9:00am 189 3 G 7 58° 73% - - 49° 58.7° 53.6° - - -
4/25 8:50am 227 4 G 7 57° 74% - - 49° 57.5° 53.6° - - -
4/25 8:40am 221 4 G 7 57° 74% - - 49° 57.5° 53.6° - - -
4/25 8:30am 215 4 G 10 57° 75% - - 49° 57.5° 53.6° - - -
4/25 8:20am 176 5 G 9 57° 76% - - 49° 57.1° 53.6° - - -
4/25 8:10am 195 4 G 7 56° 79% - - 50° 56.6° 53.6° - - -
4/25 8:00am 197 4 G 8 55° 81% - - 50° 55.7° 53.6° - - -
4/25 7:50am 197 3 G 6 55° 82% - - 50° 55.6° 53.6° - - -
4/25 7:40am 191 3 G 7 55° 83% - - 50° 55.6° 53.6° - - -
4/25 7:30am 199 3 G 8 55° 84% - - 50° 55.6° 53.6° - - -
4/25 7:20am 194 4 G 9 54° 85% - - 50° 55.6° 53.6° - - -
4/25 7:10am 196 3 G 5 54° 86% - - 50° 55.6° 53.6° - - -
4/25 7:00am 196 1 G 4 54° 86% - - 50° 55.6° 53.6° - - -
4/25 6:50am 185 2 G 5 54° 86% - - 50° 55.6° 53.6° - - -
4/25 6:40am 191 2 G 4 54° 85% - - 50° 55.6° 53.6° - - -
4/25 6:30am 189 3 G 5 54° 85% - - 49° 55.6° 53.6° - - -
4/25 6:20am 179 3 G 6 54° 84% - - 49° 55.6° 53.6° - - -
4/25 6:10am 204 2 G 4 54° 83% - - 49° 55.6° 53.6° - - -
4/25 6:00am 209 2 G 6 54° 83% - - 49° 55.6° 53.6° - - -
4/25 5:50am 214 2 G 5 54° 82% - - 49° 55.6° 53.6° - - -
4/25 5:40am 205 2 G 4 54° 83% - - 49° 55.6° 53.6° - - -
4/25 5:30am 170 2 G 4 54° 82% - - 49° 55.6° 53.6° - - -
4/25 5:20am 186 2 G 3 54° 82% - - 49° 55.6° 53.6° - - -
4/25 5:10am 181 1 G 3 54° 82% - - 49° 55.6° 53.7° - - -
4/25 5:00am 167 2 G 5 54° 82% - - 48° 55.6° 53.7° - - -
4/25 4:50am 173 2 G 4 54° 82% - - 48° 55.6° 53.8° - - -
4/25 4:40am 180 2 G 5 54° 81% - - 48° 55.6° 53.8° - - -
4/25 4:30am 167 2 G 4 54° 81% - - 48° 55.6° 53.8° - - -
4/25 4:20am 169 2 G 4 54° 81% - - 48° 55.6° 53.9° - - -
4/25 4:10am 172 2 G 4 54° 80% - - 48° 55.6° 53.9° - - -
4/25 4:00am 192 3 G 7 54° 80% - - 48° 55.6° 53.9° - - -
4/25 3:50am 205 4 G 9 54° 80% - - 48° 55.6° 54° - - -
4/25 3:40am 197 4 G 8 54° 80% - - 48° 55.6° 54.1° - - -
4/25 3:30am 196 4 G 7 54° 80% - - 49° 55.6° 54.2° - - -
4/25 3:20am 190 5 G 8 55° 81% - - 49° 55.6° 54.3° - - -
4/25 3:10am 206 3 G 8 55° 82% - - 49° 55.6° 54.3° - - -
4/25 3:00am 203 3 G 9 55° 82% - - 49° 55.6° 54.3° - - -
4/25 2:50am 196 3 G 7 55° 83% - - 50° 55.6° 54.3° - - -
4/25 2:40am 208 3 G 8 55° 83% - - 50° 55.6° 54.3° - - -
4/25 2:30am 211 4 G 11 55° 82% - - 49° 55.6° 54.3° - - -
4/25 2:20am 203 3 G 7 55° 81% - - 49° 55.6° 54.3° - - -
4/25 2:10am 199 3 G 6 55° 80% - - 49° 55.6° 54.3° - - -
4/25 2:00am 199 3 G 5 55° 79% - - 49° 55.6° 54.3° - - -
4/25 1:50am 211 3 G 8 55° 80% - - 49° 55.6° 54.3° - - -
4/25 1:40am 204 3 G 9 55° 80% - - 49° 55.6° 54.3° - - -
4/25 1:30am 203 2 G 7 55° 80% - - 49° 55.6° 54.3° - - -
4/25 1:20am 195 3 G 6 55° 80% - - 49° 55.6° 54.3° - - -
4/25 1:10am 190 4 G 7 55° 80% - - 49° 55.6° 54.3° - - -
4/25 1:00am 201 3 G 8 55° 81% - - 49° 55.6° 54.3° - - -
4/25 12:50am 216 4 G 13 55° 81% - - 49° 55.6° 54.3° - - -
4/25 12:40am 197 4 G 9 55° 80% - - 49° 55.6° 54.7° - - -
4/25 12:30am 186 4 G 6 55° 79% - - 49° 55.6° 55.1° - - -
4/25 12:20am 186 3 G 6 55° 79% - - 49° 55.5° 55.1° - - -
4/25 12:10am 181 4 G 7 55° 79% - - 49° 55.5° 55.1° - - -
4/25 12:00am 180 4 G 10 55° 79% - - 49° 70.5° 50.5° - - -
4/24 11:50pm 189 4 G 7 55° 79% - - 49° 70.5° 50.5° - - -
4/24 11:40pm 208 4 G 8 55° 79% - - 49° 70.5° 50.5° - - -
4/24 11:30pm 228 3 G 7 55° 79% - - 49° 70.5° 50.5° - - -
4/24 11:20pm 224 3 G 7 55° 80% - - 49° 70.5° 50.5° - - -
4/24 11:10pm 229 4 G 8 55° 80% - - 49° 70.5° 50.5° - - -
4/24 11:00pm 234 4 G 8 55° 80% - - 49° 70.5° 50.5° - - -
4/24 10:50pm 206 4 G 8 56° 79% - - 49° 70.5° 50.5° - - -
4/24 10:40pm 201 3 G 7 56° 79% - - 50° 70.5° 50.5° - - -
4/24 10:30pm 201 3 G 6 56° 80% - - 50° 70.5° 50.5° - - -
4/24 10:20pm 216 3 G 7 56° 80% - - 50° 70.5° 50.5° - - -
4/24 10:10pm 203 2 G 4 56° 79% - - 50° 70.5° 50.5° - - -
4/24 10:00pm 223 3 G 6 56° 77% - - 49° 70.5° 50.5° - - -
4/24 9:50pm 209 2 G 4 57° 77% - - 49° 70.5° 50.5° - - -
4/24 9:40pm 230 2 G 4 57° 78% - - 50° 70.5° 50.5° - - -
4/24 9:30pm 248 2 G 4 57° 78% - - 50° 70.5° 50.5° - - -
4/24 9:20pm 254 2 G 3 57° 78% - - 50° 70.5° 50.5° - - -
4/24 9:10pm 253 2 G 4 57° 78% - - 50° 70.5° 50.5° - - -
4/24 9:00pm 258 2 G 4 57° 78% - - 50° 70.5° 50.5° - - -
4/24 8:50pm 262 2 G 5 57° 77% - - 50° 70.5° 50.5° - - -
4/24 8:40pm 258 2 G 5 57° 77% - - 50° 70.5° 50.5° - - -
4/24 8:30pm 250 2 G 5 57° 77% - - 50° 70.5° 50.5° - - -
4/24 8:20pm 272 1 G 4 57° 77% - - 50° 70.5° 50.5° - - -
4/24 8:10pm 255 2 G 4 58° 76% - - 50° 70.5° 50.5° - - -
4/24 8:00pm 254 2 G 6 58° 76% - - 50° 70.5° 50.5° - - -
4/24 7:50pm 249 2 G 5 58° 76% - - 50° 70.5° 50.5° - - -
4/24 7:40pm 269 1 G 4 58° 76% - - 51° 70.5° 50.5° - - -
4/24 7:30pm 273 1 G 6 58° 76% - - 51° 70.5° 50.5° - - -
4/24 7:20pm 264 2 G 5 59° 75% - - 51° 70.5° 50.5° - - -
4/24 7:10pm 271 2 G 5 59° 75% - - 51° 70.5° 50.5° - - -
4/24 7:00pm 271 2 G 6 59° 73% - - 51° 70.5° 50.5° - - -
4/24 6:50pm 275 2 G 8 60° 72% - - 51° 70.5° 50.5° - - -
4/24 6:40pm 288 2 G 6 61° 71% - - 51° 70.5° 50.5° - - -
4/24 6:30pm 263 4 G 9 61° 68% - - 51° 70.5° 50.5° - - -
4/24 6:20pm 253 4 G 8 62° 65% - - 50° 70.5° 50.5° - - -
4/24 6:10pm 251 5 G 10 62° 63% - - 50° 70.5° 50.5° - - -
4/24 6:00pm 235 5 G 10 63° 62% - - 50° 70.5° 50.5° - - -